This is the latest recevied weather packets stored in our database for station/object VE6EN. If no packets are shown the sender has not sent any weather packets the latest 10 day(s).
| Time | Temp. | Humidity | Pressure | Rain* | Wind** | Luminosity | Snow |
|---|---|---|---|---|---|---|---|
| 1787715605 | 18.89° C | 57% | 1020.4 hPa | 0 mm | - | - | - |
| 1787715005 | 18.89° C | 55% | 1020.4 hPa | 0 mm | - | - | - |
| 1787714405 | 19.44° C | 55% | 1020.3 hPa | 0 mm | - | - | - |
| 1787713804 | 19.44° C | 53% | 1020.3 hPa | 0 mm | - | - | - |
| 1787713206 | 20° C | 52% | 1020.2 hPa | 0 mm | - | - | - |
| 1787712605 | 20° C | 51% | 1020.1 hPa | 0 mm | - | - | - |
| 1787712004 | 20.56° C | 50% | 1020 hPa | 0 mm | - | - | - |
| 1787711404 | 20.56° C | 49% | 1019.9 hPa | 0 mm | - | - | - |
| 1787710804 | 21.11° C | 48% | 1019.9 hPa | 0 mm | - | - | - |
| 1787710208 | 21.67° C | 47% | 1019.9 hPa | 0 mm | - | - | - |
| 1787709006 | 22.22° C | 45% | 1019.9 hPa | 0 mm | - | - | - |
| 1787708410 | 22.22° C | 45% | 1020 hPa | 0 mm | - | - | - |
| 1787707809 | 22.22° C | 44% | 1020 hPa | 0 mm | - | - | - |
| 1787707224 | 22.78° C | 44% | 1020 hPa | 0 mm | - | - | - |
| 1787706610 | 22.78° C | 43% | 1020.1 hPa | 0 mm | - | - | - |
| 1787706019 | 23.33° C | 41% | 1020.1 hPa | 0 mm | - | - | - |
| 1787705404 | 23.89° C | 41% | 1020.2 hPa | 0 mm | - | - | - |
| 1787704804 | 24.44° C | 40% | 1020.1 hPa | 0 mm | - | - | - |
| 1787704207 | 24.44° C | 39% | 1020.2 hPa | 0 mm | - | - | - |
| 1787703603 | 24.44° C | 41% | 1020.2 hPa | 0 mm | - | - | - |
| 1787703314 | 24.44° C | 40% | 1020.2 hPa | 0 mm | - | - | - |
| 1787700788 | 24.44° C | 40% | 1020.3 hPa | 0 mm | - | - | - |
| 1787699407 | 24.44° C | 42% | 1020.5 hPa | 0 mm | - | - | - |
| 1787698204 | 24.44° C | 40% | 1020.5 hPa | 0 mm | - | - | - |
| 1787695206 | 23.89° C | 44% | 1020.8 hPa | 0 mm | - | - | - |
* Rain latest hour (hover to see other rain measurements)
** Current wind speed in m/s (hover to see current wind gust speed)